Capitol Logistics 366


KIAD
Washington Dulles International Airport
Dulles, Virginia, US
CYYZ
Lester B. Pearson International Airport
Toronto, , CA

Activity Log

Date Flight Route Aircraft Duration
11/04/2019 CPX366 JERES2 JERES J220 MICAH J61 PSB J60 MIDST OXMAN LINNG2 B763 1h 17m
06/18/2019 CPX366 JERES2 JERES J220 SFK WOZEE LINNG9 B763 1h 09m

Route Details

Aircraft Information
Primary: Boeing 767-300BDSF
Backup: Not Available
Route Data
Distance: 301nm
Sched. Duration: 1h 24m
Avg. Duration: 1h 13m (-11m)
Times Flown: 2
Recm'd Route: JERES2 JERES J220 SFK WOZEE LINNG9
Planned Altitude: 34,000ft
Origin Wx: KIAD 282152Z 30005KT 10SM FEW055 BKN070 OVC095 06/M04 A2983 RMK AO2 SLP104 T00611044
Dest. Wx: CYYZ 282200Z 25017G24KT 15SM BKN032 OVC140 M04/M10 A2969 RMK CF6AC2 SLP063
Notes:

Financial History
Total Freight: 135,892lbs
Average Load: 67,946lbs/flt
Fuel Used: 25,980lbs
Avg. Fuel Used: 12,990lbs/flt
Fuel Expense: $34,294
Avg. Fuel Expense: $17,147
Avg. Fuel Cost: $1.32/lbs
Total Gross Income: $175,301
Pilot Pay: $298
Total Expenses: $19,036
Total Revenue: $121,606
Average Revenue: $87,650.34